createdAt,value
2022-08-28T00:14:13.145Z,146
2022-08-28T00:44:09.846Z,145
2022-08-28T01:14:09.986Z,141
2022-08-28T01:44:12.498Z,140
2022-08-28T02:14:12.825Z,137
2022-08-28T02:44:09.192Z,136
2022-08-28T03:14:06.876Z,136
2022-08-28T03:44:07.392Z,135
2022-08-28T04:14:06.177Z,142
2022-08-28T04:44:04.101Z,138
2022-08-28T05:14:03.889Z,138
2022-08-28T05:44:02.892Z,133
2022-08-28T06:14:07.697Z,144
2022-08-28T06:44:13.572Z,148
2022-08-28T07:14:12.402Z,145
2022-08-28T07:44:21.401Z,148
2022-08-28T08:14:23.575Z,143
2022-08-28T08:44:28.198Z,143
2022-08-28T09:14:33.733Z,140
2022-08-28T09:44:39.481Z,134
2022-08-28T10:14:38.875Z,136
2022-08-28T10:44:39.525Z,133
2022-08-28T11:14:41.565Z,129
2022-08-28T11:44:45.092Z,129
2022-08-28T12:14:51.837Z,125
2022-08-28T12:44:51.661Z,125
2022-08-28T13:14:54.510Z,122
2022-08-28T13:44:52.092Z,132
2022-08-28T14:14:59.779Z,123
2022-08-28T14:45:07.856Z,122
2022-08-28T15:15:06.413Z,121
2022-08-28T15:45:12.163Z,119
2022-08-28T16:15:09.060Z,116
2022-08-28T16:45:07.620Z,119
2022-08-28T17:15:08.442Z,116
2022-08-28T17:45:02.401Z,113
2022-08-28T18:15:04.732Z,111
2022-08-28T18:45:03.304Z,111
2022-08-28T19:15:00.762Z,109
2022-08-28T19:44:57.545Z,108
2022-08-28T20:14:54.555Z,109
2022-08-28T20:45:01.489Z,108
2022-08-28T21:15:00.928Z,105
2022-08-28T21:45:01.293Z,104
2022-08-28T22:15:01.315Z,102
2022-08-28T22:44:57.204Z,107
2022-08-28T23:14:57.756Z,103
2022-08-28T23:44:55.430Z,103
